Time;durP1;ratioP1;P1;durP2;ratioP2;P2;SDS_P1;SDS_P2;PMS_P1;PMS_P2;Temp;Humidity;BMP_temperature;BMP_pressure;BME280_temperature;BME280_humidity;BME280_pressure;Samples;Min_cycle;Max_cycle;Signal;HPM_P1;HPM_P2
2022/03/31 00:00:16;;;;;;;18.13;4.37;;;16.20;47.50;;;16.52;38.86;93881.25;5083838;28;20473;-57
2022/03/31 00:02:44;;;;;;;22.43;4.97;;;16.30;47.40;;;16.52;38.75;93870.63;5084159;28;20462;-54
2022/03/31 00:05:11;;;;;;;21.80;6.00;;;16.30;47.40;;;16.52;38.55;93875.13;5085897;28;20478;-57
2022/03/31 00:07:53;;;;;;;17.53;3.90;;;16.30;47.40;;;16.52;38.51;93886.56;5084700;28;20539;-57
2022/03/31 00:10:24;;;;;;;27.77;5.20;;;16.30;47.40;;;16.52;38.79;93891.84;5083303;28;20540;-55
2022/03/31 00:12:52;;;;;;;15.17;3.77;;;16.30;47.50;;;16.55;38.89;93890.66;5081514;28;20481;-53
2022/03/31 00:15:19;;;;;;;17.17;5.27;;;16.30;47.60;;;16.59;38.77;93889.22;5083844;28;20853;-56
2022/03/31 00:17:46;;;;;;;29.10;4.73;;;16.30;47.60;;;16.61;38.76;93889.84;5081836;28;20497;-56
2022/03/31 00:20:13;;;;;;;26.40;4.27;;;16.40;47.70;;;16.65;39.09;93907.00;5084122;28;20486;-56
2022/03/31 00:22:41;;;;;;;27.63;5.90;;;16.40;47.70;;;16.65;38.92;93896.38;5084533;28;21243;-56
2022/03/31 00:25:11;;;;;;;24.07;5.80;;;16.40;47.80;;;16.64;38.75;93892.91;5083187;28;20493;-54
2022/03/31 00:27:39;;;;;;;25.30;5.27;;;16.40;47.60;;;16.61;39.19;93893.31;5082655;28;20454;-56
2022/03/31 00:30:08;;;;;;;23.63;5.50;;;16.40;47.70;;;16.56;39.15;93884.31;5084992;28;20986;-56
2022/03/31 00:32:35;;;;;;;37.47;5.47;;;16.30;47.90;;;16.51;38.96;93870.81;5084704;28;20486;-57
2022/03/31 00:35:02;;;;;;;26.27;4.73;;;16.30;47.80;;;16.47;39.22;93863.25;5079619;28;20977;-56
2022/03/31 00:37:30;;;;;;;20.47;4.70;;;16.30;48.10;;;16.43;39.42;93855.91;5084202;28;20489;-55
2022/03/31 00:39:57;;;;;;;33.90;5.30;;;16.20;48.20;;;16.40;39.50;93857.09;5081122;28;20633;-55
2022/03/31 00:42:26;;;;;;;24.00;3.70;;;16.20;48.30;;;16.36;39.72;93850.59;5083212;28;20458;-56
2022/03/31 00:44:54;;;;;;;26.37;5.07;;;16.10;48.50;;;16.33;39.89;93852.81;5084137;28;20569;-54
2022/03/31 00:47:21;;;;;;;30.10;5.83;;;16.10;48.60;;;16.31;39.79;93858.31;5082327;28;20458;-57
2022/03/31 00:49:48;;;;;;;24.27;7.43;;;16.10;48.70;;;16.29;40.07;93893.00;5083726;28;20477;-56
2022/03/31 00:52:16;;;;;;;21.43;4.50;;;16.10;48.70;;;16.31;40.04;93884.84;5081090;28;20458;-56
2022/03/31 00:54:43;;;;;;;29.60;5.23;;;16.10;49.00;;;16.30;40.03;93868.13;5083793;28;20597;-57
2022/03/31 00:57:11;;;;;;;21.13;4.30;;;16.10;48.90;;;16.31;40.04;93858.31;5085488;28;20459;-56
2022/03/31 00:59:39;;;;;;;19.23;5.00;;;16.10;49.00;;;16.30;40.14;93857.50;5083508;28;20586;-56
2022/03/31 01:02:08;;;;;;;24.47;5.13;;;16.10;49.10;;;16.29;40.35;93855.06;5083214;28;20454;-56
2022/03/31 01:04:35;;;;;;;30.10;5.27;;;16.10;49.30;;;16.26;40.39;93853.59;5082592;28;20470;-56
2022/03/31 01:07:03;;;;;;;20.73;4.93;;;16.10;49.40;;;16.26;40.28;93850.94;5084406;28;20989;-56
2022/03/31 01:09:32;;;;;;;29.97;6.00;;;16.10;49.30;;;16.24;40.31;93828.31;5084572;28;20753;-55
2022/03/31 01:12:02;;;;;;;20.23;5.23;;;16.10;49.50;;;16.26;40.92;93828.91;5085398;28;20988;-57
2022/03/31 01:14:32;;;;;;;23.87;6.47;;;16.00;49.70;;;16.25;40.65;93833.41;5083069;28;20565;-55
2022/03/31 01:17:00;;;;;;;30.37;5.50;;;16.10;49.60;;;16.25;40.65;93843.19;5085347;28;20438;-55
2022/03/31 01:19:28;;;;;;;28.10;5.03;;;16.00;49.70;;;16.24;40.68;93842.38;5083683;28;20621;-57
2022/03/31 01:21:55;;;;;;;43.93;5.23;;;16.00;49.80;;;16.25;40.55;93829.91;5084564;28;20507;-56
2022/03/31 01:24:24;;;;;;;26.27;5.20;;;16.00;49.90;;;16.25;40.60;93836.06;5083718;28;20507;-55
2022/03/31 01:26:51;;;;;;;35.10;4.87;;;16.00;49.80;;;16.25;40.73;93844.03;5082587;28;20459;-56
2022/03/31 01:29:18;;;;;;;23.27;6.07;;;16.10;49.90;;;16.28;40.83;93842.78;5083595;28;20454;-55
2022/03/31 01:31:45;;;;;;;29.73;6.20;;;16.10;50.00;;;16.29;40.97;93836.47;5084516;28;20458;-56
2022/03/31 01:34:13;;;;;;;16.37;4.60;;;16.10;50.10;;;16.29;41.01;93818.72;5080959;28;20454;-54
2022/03/31 01:36:40;;;;;;;34.67;5.97;;;16.00;50.30;;;16.31;41.20;93823.81;5083398;28;20458;-55
2022/03/31 01:39:07;;;;;;;27.33;5.63;;;16.10;50.50;;;16.35;41.20;93829.56;5082929;28;20550;-53
2022/03/31 01:41:36;;;;;;;24.17;4.67;;;16.10;50.60;;;16.39;41.33;93823.66;5083957;28;20458;-54
2022/03/31 01:44:04;;;;;;;31.07;5.47;;;16.10;50.70;;;16.42;41.21;93812.63;5078749;28;20462;-57
2022/03/31 01:46:31;;;;;;;42.80;6.00;;;16.20;50.80;;;16.45;41.07;93835.28;5082726;28;20461;-56
2022/03/31 01:48:59;;;;;;;33.63;5.77;;;16.20;50.60;;;16.46;41.01;93831.63;5082587;28;20471;-55
2022/03/31 01:51:26;;;;;;;28.80;4.93;;;16.20;50.50;;;16.45;41.07;93812.22;5082044;28;20454;-56
2022/03/31 01:53:53;;;;;;;18.80;4.70;;;16.20;50.40;;;16.43;41.07;93830.16;5082460;28;20828;-58
2022/03/31 01:56:20;;;;;;;29.37;6.80;;;16.20;50.40;;;16.43;41.07;93818.75;5084706;28;20897;-57
2022/03/31 01:58:49;;;;;;;27.13;5.00;;;16.20;50.50;;;16.43;41.00;93827.50;5083744;28;21009;-56
2022/03/31 02:01:16;;;;;;;14.90;4.87;;;16.20;50.40;;;16.39;41.21;93828.97;5082967;28;20482;-56
2022/03/31 02:03:44;;;;;;;31.80;5.57;;;16.10;50.60;;;16.40;41.16;93817.31;5083400;28;20459;-55
2022/03/31 02:06:11;;;;;;;19.77;5.10;;;16.20;50.90;;;16.41;41.16;93815.47;5082517;28;20482;-55
2022/03/31 02:08:38;;;;;;;22.60;5.30;;;16.10;50.60;;;16.41;41.20;93820.78;5083668;28;20520;-56
2022/03/31 02:11:05;;;;;;;24.47;6.10;;;16.10;50.70;;;16.44;41.31;93810.56;5083292;28;20474;-56
2022/03/31 02:13:34;;;;;;;35.10;6.23;;;16.20;51.00;;;16.46;41.38;93803.22;5083567;28;20462;-55
2022/03/31 02:16:02;;;;;;;40.93;6.80;;;16.20;51.10;;;16.48;41.49;93803.84;5084539;28;20470;-54
2022/03/31 02:18:30;;;;;;;27.63;4.77;;;16.20;51.10;;;16.50;41.60;93798.34;5082977;28;20496;-53
2022/03/31 02:20:57;;;;;;;16.60;4.73;;;16.20;51.30;;;16.49;41.86;93792.19;5084897;28;20465;-56
2022/03/31 02:23:24;;;;;;;20.93;5.27;;;16.30;51.50;;;16.51;41.72;93799.16;5087274;28;20450;-56
2022/03/31 02:25:51;;;;;;;19.10;5.30;;;16.20;51.30;;;16.52;41.73;93796.28;5086771;28;20465;-56
2022/03/31 02:28:19;;;;;;;23.47;5.60;;;16.30;51.50;;;16.52;41.99;93800.81;5088638;28;20910;-56
2022/03/31 02:30:46;;;;;;;23.17;6.00;;;16.30;52.10;;;16.53;41.50;93799.75;5088306;28;20466;-54
2022/03/31 02:33:15;;;;;;;29.80;7.10;;;16.30;51.20;;;16.47;41.54;93799.56;5085955;28;20904;-58
2022/03/31 02:35:42;;;;;;;21.57;5.73;;;16.20;50.90;;;16.43;41.38;93808.13;5084998;28;21103;-56
2022/03/31 02:38:09;;;;;;;18.20;5.53;;;16.20;50.90;;;16.39;41.28;93807.72;5086138;28;20903;-57
2022/03/31 02:40:37;;;;;;;23.53;6.57;;;16.10;50.90;;;16.36;41.33;93813.44;5084490;28;20610;-54
2022/03/31 02:43:04;;;;;;;28.23;6.27;;;16.10;50.90;;;16.28;41.57;93800.34;5086044;28;20453;-60
2022/03/31 02:45:32;;;;;;;31.93;6.70;;;16.10;51.00;;;16.19;41.89;93805.03;5085888;28;20477;-54
2022/03/31 02:47:59;;;;;;;28.13;5.70;;;16.00;51.30;;;16.09;42.13;93809.88;5086671;28;20607;-56
2022/03/31 02:50:27;;;;;;;17.23;6.07;;;15.90;51.30;;;16.00;41.69;93816.41;5086580;28;21089;-57
2022/03/31 02:55:39;;;;;;;22.70;6.43;;;15.70;51.70;;;15.88;42.25;93810.84;5086437;28;21035;-57
2022/03/31 02:58:07;;;;;;;19.97;5.70;;;15.60;51.50;;;15.83;42.54;93805.31;5084028;28;21230;-55
2022/03/31 03:00:37;;;;;;;31.97;7.23;;;15.60;52.00;;;15.76;42.48;93802.63;5084011;28;20478;-55
2022/03/31 03:03:04;;;;;;;20.23;6.20;;;15.50;52.00;;;15.69;42.24;93804.41;5084013;28;20454;-59
2022/03/31 03:05:34;;;;;;;20.83;5.87;;;15.50;52.00;;;15.66;42.66;93804.81;5087510;28;20550;-57
2022/03/31 03:08:02;;;;;;;35.63;6.73;;;15.40;51.90;;;15.61;42.51;93805.41;5086946;28;20526;-54
2022/03/31 03:10:29;;;;;;;24.93;7.53;;;15.40;52.00;;;15.56;42.19;93819.25;5084367;28;20543;-55
2022/03/31 03:12:57;;;;;;;28.27;6.93;;;15.30;51.80;;;15.55;42.23;93814.13;5087147;28;20468;-55
2022/03/31 03:15:25;;;;;;;22.97;6.23;;;15.30;51.90;;;15.56;42.29;93815.78;5084730;28;20582;-54
2022/03/31 03:17:53;;;;;;;31.67;6.27;;;15.30;51.90;;;15.55;42.70;93822.09;5085399;28;20549;-58
2022/03/31 03:20:23;;;;;;;30.23;6.10;;;15.30;52.50;;;15.52;42.85;93823.31;5086419;28;20516;-55
2022/03/31 03:22:53;;;;;;;17.70;6.20;;;15.30;52.10;;;15.49;42.47;93813.09;5084387;28;20453;-56
2022/03/31 03:25:23;;;;;;;24.33;6.33;;;15.30;52.10;;;15.47;42.62;93804.50;5085440;28;20559;-57
2022/03/31 03:27:50;;;;;;;21.90;6.57;;;15.30;52.20;;;15.45;42.44;93816.34;5082926;28;20484;-57
2022/03/31 03:30:18;;;;;;;23.80;6.50;;;15.20;52.10;;;15.39;42.76;93810.78;5082358;28;20493;-56
2022/03/31 03:32:46;;;;;;;15.80;6.20;;;15.20;52.50;;;15.30;42.59;93808.50;5083860;28;20504;-55
2022/03/31 03:35:14;;;;;;;23.50;7.00;;;15.10;52.20;;;15.24;42.60;93807.44;5084741;28;20470;-56
2022/03/31 03:37:42;;;;;;;34.90;5.97;;;15.00;51.90;;;15.18;42.54;93789.69;5085700;28;20443;-54
2022/03/31 03:40:13;;;;;;;15.43;5.20;;;15.00;52.10;;;15.16;42.52;93786.41;5085500;28;20494;-55
2022/03/31 03:42:41;;;;;;;17.60;5.80;;;14.90;52.00;;;15.11;42.70;93794.13;5086325;28;20446;-57
2022/03/31 03:45:10;;;;;;;11.57;5.70;;;14.90;51.90;;;15.06;42.63;93792.88;5085858;28;20477;-55
2022/03/31 03:47:37;;;;;;;13.97;5.00;;;14.90;52.00;;;15.05;43.26;93791.22;5084867;28;20552;-56
2022/03/31 03:50:06;;;;;;;26.03;6.03;;;14.80;52.70;;;15.03;43.11;93787.97;5085437;28;20481;-56
2022/03/31 03:52:33;;;;;;;11.50;5.33;;;14.80;53.00;;;15.04;42.76;93799.38;5085218;28;20446;-57
2022/03/31 03:55:00;;;;;;;18.33;5.53;;;14.80;52.20;;;15.05;42.79;93785.13;5084541;28;20470;-58
2022/03/31 03:57:29;;;;;;;20.57;5.27;;;14.80;52.10;;;15.10;43.49;93776.59;5085269;28;21016;-55
2022/03/31 03:59:56;;;;;;;24.33;5.93;;;14.90;53.30;;;15.14;44.44;93777.84;5084484;28;20627;-55
2022/03/31 04:02:24;;;;;;;10.57;5.73;;;14.90;55.70;;;15.15;42.83;93790.06;5084372;28;21041;-55
2022/03/31 04:04:51;;;;;;;27.13;6.87;;;14.90;52.90;;;15.14;43.50;93788.44;5086343;28;20485;-56
2022/03/31 04:07:18;;;;;;;28.10;5.93;;;14.90;53.80;;;15.18;43.67;93781.72;5086401;28;20450;-56
2022/03/31 04:09:45;;;;;;;29.07;5.40;;;14.90;54.20;;;15.24;43.99;93784.44;5085935;28;20713;-55
2022/03/31 04:12:13;;;;;;;20.03;6.47;;;15.00;54.50;;;15.32;43.65;93788.75;5086349;28;20478;-56
2022/03/31 04:14:42;;;;;;;23.83;5.63;;;15.10;54.10;;;15.38;43.14;93795.09;5084923;28;20466;-55
2022/03/31 04:17:09;;;;;;;23.33;6.90;;;15.10;53.30;;;15.38;42.82;93798.59;5084892;28;20453;-58
2022/03/31 04:19:36;;;;;;;81.60;22.00;;;15.10;52.70;;;15.39;43.88;93796.75;5084496;28;20486;-57
2022/03/31 04:22:04;;;;;;;17.80;6.20;;;15.10;53.80;;;15.32;42.35;93794.06;5085751;28;20450;-58
2022/03/31 04:24:31;;;;;;;26.33;6.93;;;15.10;51.90;;;15.17;42.50;93788.06;5084808;28;20503;-56
2022/03/31 04:26:58;;;;;;;19.30;6.13;;;15.00;52.10;;;15.02;42.82;93788.97;5086089;28;20446;-57
2022/03/31 04:29:26;;;;;;;13.00;5.30;;;14.90;52.20;;;14.88;42.68;93795.19;5085521;28;20485;-57
2022/03/31 04:31:54;;;;;;;25.53;6.57;;;14.70;52.20;;;14.80;42.90;93813.88;5084439;28;20454;-56
2022/03/31 04:34:22;;;;;;;13.93;6.47;;;14.60;52.50;;;14.73;42.94;93827.03;5084515;28;20469;-56
2022/03/31 04:36:49;;;;;;;20.13;6.03;;;14.50;52.50;;;14.69;43.16;93821.31;5085704;28;20467;-57
2022/03/31 04:39:17;;;;;;;29.60;6.40;;;14.50;52.60;;;14.67;43.03;93786.28;5084563;28;20921;-57
2022/03/31 04:41:44;;;;;;;27.90;6.47;;;14.50;52.90;;;14.58;43.42;93805.09;5084322;28;20782;-55
2022/03/31 04:44:12;;;;;;;13.80;6.47;;;14.40;53.20;;;14.52;43.18;93812.00;5084398;28;20990;-57
2022/03/31 04:46:39;;;;;;;28.23;6.70;;;14.30;52.90;;;14.47;43.25;93828.44;5085726;28;20499;-57
2022/03/31 04:49:08;;;;;;;18.20;6.83;;;14.30;53.00;;;14.45;43.10;93814.59;5085263;28;20473;-57
2022/03/31 04:51:35;;;;;;;11.30;5.63;;;14.30;53.00;;;14.41;43.46;93828.38;5085039;28;20477;-57
2022/03/31 04:54:03;;;;;;;26.93;6.77;;;14.20;53.50;;;14.38;43.51;93842.00;5085174;28;20450;-56
2022/03/31 04:56:30;;;;;;;19.07;6.27;;;14.20;53.10;;;14.36;43.50;93828.94;5084965;28;20453;-57
2022/03/31 04:58:57;;;;;;;18.80;6.70;;;14.10;53.40;;;14.36;43.67;93823.66;5084910;28;20951;-57
2022/03/31 05:01:25;;;;;;;13.10;5.40;;;14.10;53.60;;;14.37;44.11;93819.19;5083460;28;20446;-57
2022/03/31 05:03:54;;;;;;;19.33;6.57;;;14.10;54.80;;;14.36;43.85;93818.38;5084621;28;21019;-56
2022/03/31 05:06:22;;;;;;;17.20;6.23;;;14.10;53.80;;;14.35;43.67;93828.09;5084938;28;20462;-56
2022/03/31 05:08:50;;;;;;;28.10;6.40;;;14.10;53.80;;;14.36;43.93;93813.06;5084628;28;20453;-58
2022/03/31 05:11:18;;;;;;;27.20;7.33;;;14.10;53.80;;;14.39;43.88;93804.75;5084478;28;20474;-55
2022/03/31 05:13:45;;;;;;;27.50;7.10;;;14.20;54.00;;;14.40;44.38;93787.84;5083619;28;20537;-64
2022/03/31 05:16:12;;;;;;;31.33;7.13;;;14.20;55.00;;;14.38;46.02;93776.66;5083917;28;20466;-57
2022/03/31 05:18:39;;;;;;;28.07;7.20;;;14.20;56.10;;;14.40;45.19;93792.34;5082619;28;20447;-54
2022/03/31 05:21:07;;;;;;;36.93;8.50;;;14.20;55.70;;;14.44;44.81;93790.97;5084220;28;20474;-56
2022/03/31 05:23:35;;;;;;;29.67;6.17;;;14.20;55.50;;;14.47;44.61;93817.03;5084339;28;20457;-57
2022/03/31 05:26:03;;;;;;;19.40;5.97;;;14.30;55.20;;;14.50;44.28;93821.94;5084647;28;20613;-56
2022/03/31 05:28:30;;;;;;;26.47;5.93;;;14.30;54.70;;;14.54;44.08;93831.13;5084534;28;20815;-54
2022/03/31 05:30:57;;;;;;;21.23;6.23;;;14.30;54.50;;;14.58;43.91;93856.22;5083660;28;20486;-56
2022/03/31 05:33:25;;;;;;;17.73;6.00;;;14.40;54.40;;;14.60;44.57;93846.28;5083562;28;20448;-57
2022/03/31 05:35:52;;;;;;;33.47;6.27;;;14.40;54.80;;;14.57;44.23;93838.69;5084225;28;20473;-57
2022/03/31 05:38:19;;;;;;;45.77;9.30;;;14.40;54.60;;;14.59;46.77;93839.31;5084226;28;20442;-56
2022/03/31 05:40:48;;;;;;;31.43;6.27;;;14.40;57.50;;;14.63;45.06;93842.44;5084689;28;20486;-56
2022/03/31 05:43:15;;;;;;;27.10;6.33;;;14.40;56.00;;;14.66;46.21;93845.53;5083986;28;20560;-57
2022/03/31 05:45:42;;;;;;;35.00;8.83;;;14.40;57.70;;;14.68;47.19;93851.44;5084077;28;20561;-56
2022/03/31 05:48:10;;;;;;;31.10;6.60;;;14.50;59.40;;;14.68;48.15;93848.78;5084014;28;20511;-57
2022/03/31 05:50:37;;;;;;;32.20;7.13;;;14.50;60.80;;;14.67;48.85;93838.38;5084906;28;20466;-57
2022/03/31 05:53:04;;;;;;;21.67;6.00;;;14.50;62.00;;;14.66;49.04;93840.22;5083582;28;20450;-57
2022/03/31 05:55:32;;;;;;;28.93;6.20;;;14.50;63.10;;;14.68;50.17;93832.09;5082651;28;20474;-57
2022/03/31 05:58:01;;;;;;;28.97;7.70;;;14.50;65.50;;;14.67;50.06;93841.03;5086957;28;20453;-56
2022/03/31 06:00:28;;;;;;;44.37;7.00;;;14.50;65.40;;;14.68;50.09;93806.44;5086934;28;20597;-54
2022/03/31 06:02:55;;;;;;;27.00;4.93;;;14.50;65.80;;;14.69;50.30;93796.69;5087677;28;20890;-57
2022/03/31 06:05:23;;;;;;;29.47;6.40;;;14.50;66.30;;;14.72;50.76;93780.44;5087731;28;20478;-57
2022/03/31 06:07:52;;;;;;;23.47;6.00;;;14.50;66.90;;;14.77;50.17;93777.22;5088188;28;20441;-57
2022/03/31 06:10:19;;;;;;;34.53;8.30;;;14.60;66.30;;;14.82;50.44;93786.19;5088028;28;20582;-56
2022/03/31 06:12:46;;;;;;;39.03;8.23;;;14.60;66.90;;;14.87;50.43;93767.06;5087545;28;20960;-54
2022/03/31 06:15:15;;;;;;;32.33;7.90;;;14.60;67.60;;;14.94;50.41;93762.66;5087997;28;20509;-58
2022/03/31 06:17:43;;;;;;;25.37;6.90;;;14.70;67.60;;;15.00;49.99;93756.59;5085354;28;20951;-56
2022/03/31 06:20:12;;;;;;;38.97;7.70;;;14.80;66.30;;;15.03;49.43;93756.19;5085707;28;20946;-54
2022/03/31 06:22:39;;;;;;;26.73;6.73;;;14.80;65.40;;;15.04;48.77;93773.72;5087835;28;20454;-57
2022/03/31 06:25:10;;;;;;;33.10;8.13;;;14.80;64.10;;;15.08;48.69;93789.22;5085174;28;20836;-57
2022/03/31 06:27:38;;;;;;;24.87;6.57;;;14.80;63.90;;;15.13;48.98;93797.41;5087393;28;20575;-57
2022/03/31 06:30:06;;;;;;;23.60;7.33;;;14.90;64.60;;;15.19;48.88;93826.56;5087215;28;20823;-56
2022/03/31 06:32:35;;;;;;;38.77;6.40;;;14.90;64.60;;;15.23;48.64;93827.03;5085740;28;20817;-53
2022/03/31 06:35:02;;;;;;;27.97;5.60;;;15.00;63.90;;;15.25;48.40;93846.19;5087677;28;20470;-57
2022/03/31 06:37:29;;;;;;;32.00;6.80;;;15.00;63.10;;;15.26;49.08;93850.47;5087359;28;20449;-60
2022/03/31 06:39:57;;;;;;;26.47;7.00;;;15.00;63.80;;;15.23;49.02;93846.38;5087575;28;20493;-57
2022/03/31 06:42:24;;;;;;;30.33;6.47;;;15.00;64.30;;;15.18;48.75;93846.16;5086815;28;20501;-55
2022/03/31 06:44:51;;;;;;;41.73;8.80;;;15.00;64.50;;;15.13;48.99;93853.03;5086674;28;20466;-55
2022/03/31 06:47:18;;;;;;;26.43;7.07;;;14.90;64.70;;;15.08;49.04;93858.09;5086934;28;20450;-57
2022/03/31 06:49:47;;;;;;;50.80;7.43;;;14.90;64.60;;;15.01;49.91;93850.91;5087192;28;20555;-57
2022/03/31 06:52:14;;;;;;;27.67;8.30;;;14.80;65.60;;;14.93;50.23;93843.09;5087516;28;20450;-55
2022/03/31 06:54:42;;;;;;;24.17;7.90;;;14.80;67.00;;;14.87;49.62;93855.28;5087484;28;20466;-57
2022/03/31 06:57:09;;;;;;;15.37;8.07;;;14.70;66.10;;;14.89;50.59;93847.16;5087385;28;20820;-57
2022/03/31 06:59:36;;;;;;;25.40;7.17;;;14.70;67.70;;;14.90;50.05;93835.53;5086746;28;20485;-57
2022/03/31 07:02:04;;;;;;;20.87;7.33;;;14.70;67.50;;;14.94;49.82;93835.97;5085862;28;20481;-55
2022/03/31 07:04:31;;;;;;;25.10;8.00;;;14.70;67.00;;;14.96;51.79;93826.00;5085366;28;20468;-56
2022/03/31 07:07:00;;;;;;;28.93;6.90;;;14.70;69.50;;;14.94;50.81;93831.50;5085812;28;20670;-55
2022/03/31 07:09:28;;;;;;;40.17;7.60;;;14.70;68.80;;;14.96;50.88;93826.81;5085143;28;20476;-56
2022/03/31 07:11:55;;;;;;;25.67;7.87;;;14.70;68.10;;;15.05;50.71;93822.19;5084135;28;20446;-57
2022/03/31 07:14:22;;;;;;;31.50;7.80;;;14.80;68.80;;;15.12;51.03;93799.25;5085526;28;20801;-57
2022/03/31 07:16:49;;;;;;;45.30;8.50;;;14.90;69.70;;;15.18;50.17;93779.09;5083994;28;20723;-54
2022/03/31 07:19:17;;;;;;;48.57;8.10;;;14.90;67.90;;;15.28;50.19;93790.16;5084918;28;20446;-57
2022/03/31 07:21:44;;;;;;;32.47;7.43;;;15.00;68.00;;;15.39;50.40;93779.00;5086922;28;20447;-58
2022/03/31 07:24:13;;;;;;;56.27;8.03;;;15.10;68.10;;;15.50;50.00;93776.81;5086980;28;20453;-56
2022/03/31 07:26:40;;;;;;;34.10;6.70;;;15.20;67.60;;;15.62;50.12;93766.47;5087048;28;20488;-56
2022/03/31 07:29:08;;;;;;;41.17;7.63;;;15.40;67.60;;;15.74;49.71;93770.19;5084897;28;20537;-56
2022/03/31 07:31:35;;;;;;;39.73;7.43;;;15.50;67.40;;;15.89;49.94;93793.91;5086446;28;20454;-56
2022/03/31 07:34:02;;;;;;;52.87;7.10;;;15.60;66.90;;;16.05;49.30;93801.53;5086765;28;20450;-57
2022/03/31 07:36:30;;;;;;;49.93;6.90;;;15.80;66.70;;;16.21;49.09;93799.53;5086704;28;20999;-56
2022/03/31 07:38:57;;;;;;;73.13;8.13;;;15.90;66.00;;;16.33;48.63;93792.59;5086015;28;20454;-56
2022/03/31 07:41:25;;;;;;;49.93;8.93;;;16.00;65.40;;;16.44;48.83;93794.66;5086700;28;20508;-55
2022/03/31 07:43:53;;;;;;;33.27;6.10;;;16.10;65.40;;;16.55;48.46;93787.94;5086372;28;20442;-56
2022/03/31 07:46:20;;;;;;;38.53;6.70;;;16.20;64.90;;;16.69;48.12;93790.59;5086609;28;20466;-54
2022/03/31 07:48:47;;;;;;;38.07;6.40;;;16.40;64.30;;;16.77;47.89;93783.22;5085551;28;20451;-55
2022/03/31 07:51:16;;;;;;;40.77;6.83;;;16.50;63.20;;;16.82;47.29;93791.41;5086526;28;20515;-55
2022/03/31 07:53:43;;;;;;;41.13;8.30;;;16.60;62.70;;;16.82;47.44;93804.69;5086564;28;20870;-57
2022/03/31 07:56:10;;;;;;;41.60;8.90;;;16.60;62.30;;;16.84;47.25;93801.84;5086462;28;20466;-55
2022/03/31 07:58:39;;;;;;;50.93;8.77;;;16.60;62.40;;;16.81;47.39;93800.41;5085800;28;20453;-57
2022/03/31 08:01:07;;;;;;;53.63;10.20;;;16.60;62.50;;;16.79;47.71;93783.03;5085571;28;20494;-56
2022/03/31 08:03:34;;;;;;;26.10;7.93;;;16.60;62.80;;;16.84;47.70;93783.25;5085839;28;20621;-56
2022/03/31 08:06:01;;;;;;;52.53;7.93;;;16.60;63.10;;;16.92;47.42;93779.59;5086247;28;20477;-55
2022/03/31 08:08:29;;;;;;;35.97;7.60;;;16.60;63.40;;;16.98;47.32;93770.81;5086012;28;20448;-55
2022/03/31 08:10:56;;;;;;;42.10;9.17;;;16.70;62.40;;;17.09;47.17;93774.66;5085904;28;20470;-56
2022/03/31 08:13:24;;;;;;;44.30;8.43;;;16.80;62.30;;;17.18;47.10;93765.44;5085528;28;20503;-55
2022/03/31 08:15:54;;;;;;;32.67;8.20;;;16.90;62.00;;;17.25;47.15;93774.22;5086072;28;20861;-58
2022/03/31 08:18:25;;;;;;;42.67;8.80;;;17.00;62.30;;;17.36;47.05;93791.34;5083817;28;20882;-56
2022/03/31 08:20:53;;;;;;;60.13;8.83;;;17.00;61.80;;;17.39;46.59;93791.75;5084433;28;20493;-55
2022/03/31 08:23:20;;;;;;;34.07;8.57;;;17.10;61.30;;;17.42;46.58;93801.16;5085685;28;20461;-55
2022/03/31 08:25:47;;;;;;;55.77;6.60;;;17.10;60.50;;;17.42;45.97;93768.47;5086054;28;20481;-57
2022/03/31 08:28:15;;;;;;;33.80;9.13;;;17.10;60.00;;;17.42;46.29;93779.91;5082080;28;20462;-57
2022/03/31 08:30:42;;;;;;;30.03;6.30;;;17.20;60.00;;;17.44;46.45;93772.50;5085392;28;20473;-57
2022/03/31 08:33:11;;;;;;;41.07;7.30;;;17.20;60.30;;;17.52;45.84;93752.84;5084424;28;20462;-57
2022/03/31 08:35:38;;;;;;;41.43;6.60;;;17.20;59.70;;;17.60;45.92;93762.44;5085519;28;20461;-56
2022/03/31 08:38:06;;;;;;;34.43;7.33;;;17.30;59.70;;;17.69;45.59;93764.69;5085012;28;20561;-57
2022/03/31 08:40:33;;;;;;;39.80;8.30;;;17.40;59.50;;;17.76;45.31;93755.84;5083924;28;20890;-56
2022/03/31 08:43:02;;;;;;;39.13;7.23;;;17.50;59.20;;;17.78;45.71;93749.28;5085057;28;20811;-57
2022/03/31 08:45:30;;;;;;;35.07;6.63;;;17.50;59.00;;;17.84;45.64;93744.97;5085476;28;20509;-56
2022/03/31 08:47:58;;;;;;;39.43;7.70;;;17.60;58.80;;;17.90;45.53;93722.88;5085275;28;20519;-56
2022/03/31 08:50:26;;;;;;;34.53;7.20;;;17.60;58.60;;;18.00;45.06;93727.72;5085257;28;20838;-53
2022/03/31 08:52:54;;;;;;;47.60;7.47;;;17.70;58.70;;;18.08;45.33;93760.22;5084526;28;20449;-56
2022/03/31 08:55:21;;;;;;;39.63;6.67;;;17.80;58.60;;;18.17;45.09;93738.66;5085076;28;20486;-57
2022/03/31 08:57:50;;;;;;;35.47;6.23;;;17.90;57.80;;;18.23;44.79;93748.44;5084414;28;20446;-56
2022/03/31 09:00:20;;;;;;;40.27;6.70;;;17.90;57.40;;;18.26;44.44;93756.00;5084539;28;20482;-56
2022/03/31 09:03:01;;;;;;;35.93;5.63;;;18.00;57.10;;;18.34;44.21;93739.78;5082152;28;20456;-56
2022/03/31 09:05:37;;;;;;;38.40;6.60;;;18.00;56.70;;;18.44;43.56;93741.97;5084797;28;20775;-56
2022/03/31 09:08:05;;;;;;;45.67;6.70;;;18.10;56.50;;;18.50;44.07;93774.88;5085159;28;20549;-56
2022/03/31 09:10:34;;;;;;;40.67;6.67;;;18.20;56.30;;;18.57;43.19;93760.50;5085125;28;20884;-57
2022/03/31 09:13:03;;;;;;;32.97;6.40;;;18.30;56.00;;;18.59;43.35;93755.78;5083142;28;20473;-56
2022/03/31 09:15:31;;;;;;;41.80;6.93;;;18.30;55.80;;;18.60;43.23;93729.97;5084809;28;20477;-56
2022/03/31 09:17:59;;;;;;;34.17;6.43;;;18.30;55.90;;;18.58;43.83;93730.19;5080947;28;20469;-56
2022/03/31 09:20:38;;;;;;;45.97;6.87;;;18.30;55.90;;;18.59;43.53;93721.16;5084920;28;21549;-55
2022/03/31 09:23:06;;;;;;;39.90;7.57;;;18.30;56.10;;;18.61;43.38;93731.59;5084279;28;20460;-57
2022/03/31 09:25:33;;;;;;;34.77;6.30;;;18.30;56.20;;;18.63;43.36;93722.34;5082774;28;21028;-56
2022/03/31 09:28:11;;;;;;;35.83;6.03;;;18.30;55.90;;;18.67;43.46;93717.41;5084397;28;20442;-56
2022/03/31 09:30:45;;;;;;;60.13;6.80;;;18.30;55.80;;;18.72;43.23;93743.41;5083758;28;20576;-56
2022/03/31 09:33:12;;;;;;;19.27;4.40;;;18.40;55.70;;;18.78;42.87;93740.66;5085390;28;20438;-57
2022/03/31 09:35:41;;;;;;;26.17;6.20;;;18.50;55.50;;;18.84;43.57;93720.34;5088749;28;20466;-57
2022/03/31 09:38:14;;;;;;;39.77;6.13;;;18.60;55.40;;;18.97;43.35;93716.75;5086202;28;20946;-56
2022/03/31 09:40:41;;;;;;;36.13;5.47;;;18.70;55.30;;;19.10;43.20;93721.97;5088530;28;20485;-54
2022/03/31 09:43:09;;;;;;;24.43;5.83;;;18.80;55.40;;;19.28;42.88;93701.66;5088586;28;20446;-56
2022/03/31 09:45:39;;;;;;;19.93;5.50;;;18.90;55.00;;;19.35;42.67;93721.88;5086345;28;20466;-56
2022/03/31 09:48:18;;;;;;;31.10;7.37;;;19.00;54.50;;;19.35;42.24;93719.22;5088717;28;20495;-57
2022/03/31 09:50:47;;;;;;;31.30;6.33;;;19.10;54.40;;;19.38;42.67;93706.47;5088710;28;20969;-55
2022/03/31 09:53:15;;;;;;;21.67;5.63;;;19.10;54.30;;;19.41;42.54;93701.53;5087982;28;20450;-57
2022/03/31 09:55:43;;;;;;;27.67;5.63;;;19.10;54.10;;;19.47;41.99;93711.31;5088583;28;20473;-56
2022/03/31 09:58:13;;;;;;;24.80;6.43;;;19.20;54.40;;;19.52;42.32;93703.44;5088221;28;20457;-56
2022/03/31 10:00:41;;;;;;;32.57;6.53;;;19.20;54.00;;;19.56;42.31;93719.78;5088078;28;20485;-55
2022/03/31 10:03:08;;;;;;;39.77;7.10;;;19.30;54.00;;;19.56;42.09;93695.78;5087487;28;20442;-57
2022/03/31 10:05:38;;;;;;;37.90;6.97;;;19.30;54.00;;;19.59;42.05;93692.69;5084426;28;20481;-57
2022/03/31 10:08:08;;;;;;;35.50;5.53;;;19.30;54.00;;;19.66;42.56;93711.28;5087945;28;20449;-57
2022/03/31 10:10:36;;;;;;;21.23;5.27;;;19.30;54.00;;;19.70;42.32;93715.94;5087612;28;20573;-55
2022/03/31 10:13:11;;;;;;;35.50;5.37;;;19.40;53.80;;;19.73;41.93;93708.53;5087782;28;20499;-55
2022/03/31 10:15:38;;;;;;;30.87;4.67;;;19.40;53.50;;;19.68;41.70;93691.31;5087986;28;20904;-58
2022/03/31 10:18:06;;;;;;;47.77;6.70;;;19.40;53.50;;;19.68;41.78;93690.53;5087506;28;20454;-55